sensor_id;sensor_type;location;lat;lon;timestamp;P1;durP1;ratioP1;P2;durP2;ratioP2
74457;SDS011;62896;51.032;3.712;2023-06-26T16:59:48;4.2;;;1.1;;
74457;SDS011;62896;51.032;3.712;2023-06-26T17:03:08;4.2;;;1.1;;
74457;SDS011;62896;51.032;3.712;2023-06-26T17:06:28;4.2;;;1.1;;
74457;SDS011;62896;51.032;3.712;2023-06-26T17:09:48;4.2;;;1.1;;
74457;SDS011;62896;51.032;3.712;2023-06-26T17:13:08;4.2;;;1.1;;
74457;SDS011;62896;51.032;3.712;2023-06-26T17:16:28;4.2;;;1.1;;
74457;SDS011;62896;51.032;3.712;2023-06-26T17:19:48;4.2;;;1.1;;
74457;SDS011;62896;51.032;3.712;2023-06-26T17:23:08;5;;;1.4;;
74457;SDS011;62896;51.032;3.712;2023-06-26T17:26:28;5;;;1.4;;
74457;SDS011;62896;51.032;3.712;2023-06-26T17:29:48;5;;;1.4;;
74457;SDS011;62896;51.032;3.712;2023-06-26T17:33:08;5;;;1.4;;
74457;SDS011;62896;51.032;3.712;2023-06-26T17:36:28;5;;;1.4;;
74457;SDS011;62896;51.032;3.712;2023-06-26T17:39:48;5;;;1.4;;
74457;SDS011;62896;51.032;3.712;2023-06-26T17:43:08;5;;;1.4;;
74457;SDS011;62896;51.032;3.712;2023-06-26T17:46:28;5;;;1.4;;
74457;SDS011;62896;51.032;3.712;2023-06-26T17:49:48;5;;;1.4;;
74457;SDS011;62896;51.032;3.712;2023-06-26T17:53:08;5;;;1.4;;
74457;SDS011;62896;51.032;3.712;2023-06-26T17:56:28;5;;;1.4;;
74457;SDS011;62896;51.032;3.712;2023-06-26T17:59:48;5;;;1.4;;
74457;SDS011;62896;51.032;3.712;2023-06-26T18:03:08;5;;;1.4;;
74457;SDS011;62896;51.032;3.712;2023-06-26T18:06:28;5;;;1.4;;
74457;SDS011;62896;51.032;3.712;2023-06-26T18:09:48;5;;;1.4;;
74457;SDS011;62896;51.032;3.712;2023-06-26T18:13:08;2.6;;;1.1;;
74457;SDS011;62896;51.032;3.712;2023-06-26T18:16:28;2.6;;;1.1;;
74457;SDS011;62896;51.032;3.712;2023-06-26T18:19:48;2.6;;;1.1;;
74457;SDS011;62896;51.032;3.712;2023-06-26T18:23:08;2.6;;;1.1;;
74457;SDS011;62896;51.032;3.712;2023-06-26T18:26:28;2.6;;;1.1;;
74457;SDS011;62896;51.032;3.712;2023-06-26T18:29:48;2.6;;;1.1;;
74457;SDS011;62896;51.032;3.712;2023-06-26T18:33:08;2.6;;;1.1;;
74457;SDS011;62896;51.032;3.712;2023-06-26T18:36:28;2.6;;;1.1;;
74457;SDS011;62896;51.032;3.712;2023-06-26T18:39:48;5.9;;;1.3;;
74457;SDS011;62896;51.032;3.712;2023-06-26T18:43:08;5.9;;;1.3;;
74457;SDS011;62896;51.032;3.712;2023-06-26T18:46:28;5.9;;;1.3;;
74457;SDS011;62896;51.032;3.712;2023-06-26T18:49:48;5.9;;;1.3;;
74457;SDS011;62896;51.032;3.712;2023-06-26T18:53:08;5.9;;;1.3;;
74457;SDS011;62896;51.032;3.712;2023-06-26T18:56:28;5.9;;;1.3;;
74457;SDS011;62896;51.032;3.712;2023-06-26T18:59:48;5.9;;;1.3;;
74457;SDS011;62896;51.032;3.712;2023-06-26T19:03:08;7.5;;;1.6;;
74457;SDS011;62896;51.032;3.712;2023-06-26T19:06:28;7.5;;;1.6;;
74457;SDS011;62896;51.032;3.712;2023-06-26T19:09:48;7.5;;;1.6;;
74457;SDS011;62896;51.032;3.712;2023-06-26T19:13:08;7.5;;;1.6;;
74457;SDS011;62896;51.032;3.712;2023-06-26T19:16:28;7.5;;;1.6;;
74457;SDS011;62896;51.032;3.712;2023-06-26T19:19:48;7.5;;;1.6;;
74457;SDS011;62896;51.032;3.712;2023-06-26T19:23:08;7.5;;;1.6;;
74457;SDS011;62896;51.032;3.712;2023-06-26T19:26:28;7.5;;;1.6;;
74457;SDS011;62896;51.032;3.712;2023-06-26T19:29:48;6.9;;;1.7;;
74457;SDS011;62896;51.032;3.712;2023-06-26T19:33:08;6.9;;;1.7;;
74457;SDS011;62896;51.032;3.712;2023-06-26T19:36:28;6.9;;;1.7;;
74457;SDS011;62896;51.032;3.712;2023-06-26T19:39:48;6.9;;;1.7;;
74457;SDS011;62896;51.032;3.712;2023-06-26T19:43:09;6.9;;;1.7;;
74457;SDS011;62896;51.032;3.712;2023-06-26T19:46:28;6.9;;;1.7;;
74457;SDS011;62896;51.032;3.712;2023-06-26T19:49:48;6.9;;;1.7;;
74457;SDS011;62896;51.032;3.712;2023-06-26T19:53:08;6.2;;;1.5;;
74457;SDS011;62896;51.032;3.712;2023-06-26T19:56:28;6.2;;;1.5;;
74457;SDS011;62896;51.032;3.712;2023-06-26T19:59:48;6.2;;;1.5;;
74457;SDS011;62896;51.032;3.712;2023-06-26T20:03:08;6.2;;;1.5;;
74457;SDS011;62896;51.032;3.712;2023-06-26T20:06:28;6.2;;;1.5;;
74457;SDS011;62896;51.032;3.712;2023-06-26T20:09:48;6.2;;;1.5;;
74457;SDS011;62896;51.032;3.712;2023-06-26T20:13:08;6.2;;;1.5;;
74457;SDS011;62896;51.032;3.712;2023-06-26T20:16:28;6.2;;;1.5;;
74457;SDS011;62896;51.032;3.712;2023-06-26T20:19:48;9;;;1.8;;
74457;SDS011;62896;51.032;3.712;2023-06-26T20:23:08;9;;;1.8;;
74457;SDS011;62896;51.032;3.712;2023-06-26T20:26:28;9;;;1.8;;
74457;SDS011;62896;51.032;3.712;2023-06-26T20:29:48;9;;;1.8;;
74457;SDS011;62896;51.032;3.712;2023-06-26T20:33:08;9;;;1.8;;
74457;SDS011;62896;51.032;3.712;2023-06-26T20:36:28;9;;;1.8;;
74457;SDS011;62896;51.032;3.712;2023-06-26T20:39:48;9;;;1.8;;
74457;SDS011;62896;51.032;3.712;2023-06-26T20:43:08;8.2;;;1.7;;
74457;SDS011;62896;51.032;3.712;2023-06-26T20:46:29;8.2;;;1.7;;
74457;SDS011;62896;51.032;3.712;2023-06-26T20:49:48;8.2;;;1.7;;
74457;SDS011;62896;51.032;3.712;2023-06-26T20:53:08;8.2;;;1.7;;
74457;SDS011;62896;51.032;3.712;2023-06-26T20:56:28;8.2;;;1.7;;
74457;SDS011;62896;51.032;3.712;2023-06-26T20:59:48;8.2;;;1.7;;
74457;SDS011;62896;51.032;3.712;2023-06-26T21:03:08;8.2;;;1.7;;
74457;SDS011;62896;51.032;3.712;2023-06-26T21:06:28;8.2;;;1.7;;
74457;SDS011;62896;51.032;3.712;2023-06-26T21:09:48;8.7;;;1.9;;
74457;SDS011;62896;51.032;3.712;2023-06-26T21:13:08;8.7;;;1.9;;
74457;SDS011;62896;51.032;3.712;2023-06-26T21:16:28;8.7;;;1.9;;
74457;SDS011;62896;51.032;3.712;2023-06-26T21:19:48;8.7;;;1.9;;
74457;SDS011;62896;51.032;3.712;2023-06-26T21:23:08;8.7;;;1.9;;
74457;SDS011;62896;51.032;3.712;2023-06-26T21:26:28;8.7;;;1.9;;
74457;SDS011;62896;51.032;3.712;2023-06-26T21:29:48;8.7;;;1.9;;
74457;SDS011;62896;51.032;3.712;2023-06-26T21:33:08;6.4;;;1.6;;
74457;SDS011;62896;51.032;3.712;2023-06-26T21:36:28;6.4;;;1.6;;
74457;SDS011;62896;51.032;3.712;2023-06-26T21:39:48;6.4;;;1.6;;
74457;SDS011;62896;51.032;3.712;2023-06-26T21:43:08;6.4;;;1.6;;
74457;SDS011;62896;51.032;3.712;2023-06-26T21:46:28;6.4;;;1.6;;
74457;SDS011;62896;51.032;3.712;2023-06-26T21:49:48;6.4;;;1.6;;
74457;SDS011;62896;51.032;3.712;2023-06-26T21:53:08;6.4;;;1.6;;
74457;SDS011;62896;51.032;3.712;2023-06-26T21:56:28;6.4;;;1.6;;
74457;SDS011;62896;51.032;3.712;2023-06-26T21:59:48;6.7;;;1.7;;
74457;SDS011;62896;51.032;3.712;2023-06-26T22:03:08;6.7;;;1.7;;
74457;SDS011;62896;51.032;3.712;2023-06-26T22:06:28;6.7;;;1.7;;
74457;SDS011;62896;51.032;3.712;2023-06-26T22:09:48;6.7;;;1.7;;
74457;SDS011;62896;51.032;3.712;2023-06-26T22:13:08;6.7;;;1.7;;
74457;SDS011;62896;51.032;3.712;2023-06-26T22:16:28;6.7;;;1.7;;
74457;SDS011;62896;51.032;3.712;2023-06-26T22:19:48;6.7;;;1.7;;
74457;SDS011;62896;51.032;3.712;2023-06-26T22:23:08;7.9;;;1.8;;
74457;SDS011;62896;51.032;3.712;2023-06-26T22:26:28;7.9;;;1.8;;
74457;SDS011;62896;51.032;3.712;2023-06-26T22:29:48;7.9;;;1.8;;
74457;SDS011;62896;51.032;3.712;2023-06-26T22:33:08;7.9;;;1.8;;
74457;SDS011;62896;51.032;3.712;2023-06-26T22:36:28;7.9;;;1.8;;
74457;SDS011;62896;51.032;3.712;2023-06-26T22:39:48;7.9;;;1.8;;
74457;SDS011;62896;51.032;3.712;2023-06-26T22:43:08;7.9;;;1.8;;
74457;SDS011;62896;51.032;3.712;2023-06-26T22:46:28;7.9;;;1.8;;
74457;SDS011;62896;51.032;3.712;2023-06-26T22:49:48;11.7;;;2;;
74457;SDS011;62896;51.032;3.712;2023-06-26T22:53:08;11.7;;;2;;
74457;SDS011;62896;51.032;3.712;2023-06-26T22:56:28;11.7;;;2;;
74457;SDS011;62896;51.032;3.712;2023-06-26T22:59:48;11.7;;;2;;
74457;SDS011;62896;51.032;3.712;2023-06-26T23:03:08;11.7;;;2;;
74457;SDS011;62896;51.032;3.712;2023-06-26T23:06:28;11.7;;;2;;
74457;SDS011;62896;51.032;3.712;2023-06-26T23:09:48;11.7;;;2;;
74457;SDS011;62896;51.032;3.712;2023-06-26T23:13:08;8.3;;;1.8;;
74457;SDS011;62896;51.032;3.712;2023-06-26T23:16:28;8.3;;;1.8;;
74457;SDS011;62896;51.032;3.712;2023-06-26T23:19:48;8.3;;;1.8;;
74457;SDS011;62896;51.032;3.712;2023-06-26T23:23:08;8.3;;;1.8;;
74457;SDS011;62896;51.032;3.712;2023-06-26T23:26:28;8.3;;;1.8;;
74457;SDS011;62896;51.032;3.712;2023-06-26T23:29:48;8.3;;;1.8;;
74457;SDS011;62896;51.032;3.712;2023-06-26T23:33:08;8.3;;;1.8;;
74457;SDS011;62896;51.032;3.712;2023-06-26T23:36:28;8.3;;;1.8;;
74457;SDS011;62896;51.032;3.712;2023-06-26T23:39:48;7.6;;;1.6;;
74457;SDS011;62896;51.032;3.712;2023-06-26T23:43:08;7.6;;;1.6;;
74457;SDS011;62896;51.032;3.712;2023-06-26T23:46:28;7.6;;;1.6;;
74457;SDS011;62896;51.032;3.712;2023-06-26T23:49:48;7.6;;;1.6;;
74457;SDS011;62896;51.032;3.712;2023-06-26T23:53:08;7.6;;;1.6;;
74457;SDS011;62896;51.032;3.712;2023-06-26T23:56:28;7.6;;;1.6;;
74457;SDS011;62896;51.032;3.712;2023-06-26T23:59:48;7.6;;;1.6;;
